Terminal Aerodrome Forecast
Issued by NWS Flagstaff, AZ

Home | Current Version | Previous Version | Text Only | Print | Product List | Glossary On
Versions: 1 2 3 4 5 6 7 8 9 10 11 12 13 14 15 16 17 18 19
000
FTUS45 KFGZ 301130
TAFINW
TAF
KINW 301130Z 3012/3112 VRB06KT P6SM FEW250
     FM301730 23016G25KT P6SM FEW150
     FM302100 22030G43KT P6SM FEW150
     FM310200 21020G35KT P6SM BKN080=

USA.gov is the U.S. government's official web portal to all federal, state and local government web resources and services.